Time;durP1;ratioP1;P1;durP2;ratioP2;P2;SDS_P1;SDS_P2;PMS_P1;PMS_P2;Temp;Humidity;BMP_temperature;BMP_pressure;BME280_temperature;BME280_humidity;BME280_pressure;Samples;Min_cycle;Max_cycle;Signal;HPM_P1;HPM_P2
2022/11/27 00:01:23;;;;;;;11.33;5.10;;;-13.00;99.90;;;;;;5084020;28;20506;-77
2022/11/27 00:03:49;;;;;;;13.27;5.90;;;-12.10;99.90;;;;;;5089516;28;20504;-78
2022/11/27 00:06:19;;;;;;;17.20;5.53;;;-12.00;99.90;;;;;;5096180;28;20185;-79
2022/11/27 00:08:45;;;;;;;18.90;5.27;;;-10.20;99.90;;;;;;5094049;28;20243;-76
2022/11/27 00:11:17;;;;;;;13.03;5.57;;;-9.30;99.90;;;;;;5090229;28;20191;-76
2022/11/27 00:13:43;;;;;;;13.00;5.70;;;-7.50;99.90;;;;;;5089293;28;20178;-76
2022/11/27 00:16:09;;;;;;;11.47;5.63;;;-9.00;99.90;;;;;;5098999;27;20175;-75
2022/11/27 00:18:35;;;;;;;7.23;4.63;;;-6.80;99.90;;;;;;5083301;28;20187;-76
2022/11/27 00:21:23;;;;;;;12.63;3.60;;;-7.40;99.90;;;;;;5082596;28;20187;-76
2022/11/27 00:23:51;;;;;;;14.37;5.20;;;-7.50;99.90;;;;;;5094434;28;20178;-76
2022/11/27 00:26:17;;;;;;;13.10;4.63;;;-10.20;99.90;;;;;;5094478;28;20423;-75
2022/11/27 00:28:43;;;;;;;15.53;5.37;;;-9.50;99.90;;;;;;5094936;28;20244;-76
2022/11/27 00:31:22;;;;;;;9.53;5.10;;;-8.70;99.90;;;;;;5088882;28;20597;-79
2022/11/27 00:33:48;;;;;;;16.40;5.30;;;-9.40;99.90;;;;;;5088719;28;20217;-77
2022/11/27 00:36:14;;;;;;;15.53;5.40;;;-10.30;99.90;;;;;;5090918;28;20228;-76
2022/11/27 00:38:41;;;;;;;8.83;4.73;;;-9.90;99.90;;;;;;5094890;28;20423;-77
2022/11/27 00:41:09;;;;;;;9.53;4.03;;;-9.80;99.90;;;;;;5088386;28;20332;-76
2022/11/27 00:43:36;;;;;;;8.33;4.67;;;-10.20;99.90;;;;;;5093319;28;20186;-75
2022/11/27 00:46:03;;;;;;;10.07;4.50;;;-9.80;99.90;;;;;;5095385;28;20242;-75
2022/11/27 00:48:29;;;;;;;7.67;4.13;;;-8.00;99.90;;;;;;5092296;28;20450;-77
2022/11/27 00:51:00;;;;;;;15.07;4.60;;;-9.10;99.90;;;;;;5095740;28;20578;-75
2022/11/27 00:53:26;;;;;;;7.20;4.00;;;-9.40;99.90;;;;;;5095330;28;20205;-74
2022/11/27 00:55:53;;;;;;;15.57;5.93;;;-8.60;99.90;;;;;;5095649;28;20171;-75
2022/11/27 00:58:19;;;;;;;7.47;3.93;;;-6.00;99.90;;;;;;5088192;28;20171;-75
2022/11/27 01:00:45;;;;;;;5.50;3.87;;;-8.10;99.90;;;;;;5086414;28;20179;-73
2022/11/27 01:03:11;;;;;;;9.97;3.63;;;-7.60;99.90;;;;;;5084807;28;20193;-73
2022/11/27 01:05:37;;;;;;;9.77;4.10;;;-7.90;99.90;;;;;;5090574;28;20181;-74
2022/11/27 01:08:03;;;;;;;17.33;4.17;;;-8.30;99.90;;;;;;5088505;28;20265;-78
2022/11/27 01:10:29;;;;;;;12.60;4.57;;;-8.60;99.90;;;;;;5095728;28;20179;-74
2022/11/27 01:12:54;;;;;;;6.13;2.77;;;-7.00;99.90;;;;;;5093772;28;20178;-74
2022/11/27 01:15:20;;;;;;;12.67;4.40;;;-9.30;99.90;;;;;;5084393;28;20178;-77
2022/11/27 01:17:46;;;;;;;10.73;3.10;;;-10.00;99.90;;;;;;5088464;28;20239;-73
2022/11/27 01:20:12;;;;;;;10.37;4.97;;;-10.40;99.90;;;;;;5088791;28;20588;-73
2022/11/27 01:22:37;;;;;;;14.37;4.73;;;-11.10;99.90;;;;;;5091770;28;20177;-73
2022/11/27 01:25:04;;;;;;;17.27;3.97;;;-10.80;99.90;;;;;;5091726;28;20183;-76
2022/11/27 01:27:29;;;;;;;5.80;3.27;;;-10.20;99.90;;;;;;5094360;28;20198;-73
2022/11/27 01:29:55;;;;;;;8.37;3.13;;;-10.00;99.90;;;;;;5091036;28;20171;-73
2022/11/27 01:32:21;;;;;;;10.33;3.33;;;-10.00;99.90;;;;;;5095889;28;20190;-79
2022/11/27 01:34:47;;;;;;;5.07;3.07;;;-9.50;99.90;;;;;;5082648;28;20175;-72
2022/11/27 01:37:12;;;;;;;7.23;4.47;;;-9.60;99.90;;;;;;5085021;28;20174;-73
2022/11/27 01:39:38;;;;;;;8.80;3.43;;;-9.80;99.90;;;;;;5089791;28;20179;-74
2022/11/27 01:42:04;;;;;;;8.23;3.30;;;-9.20;99.90;;;;;;5095561;28;20178;-81
2022/11/27 01:44:30;;;;;;;11.70;4.17;;;-8.50;99.90;;;;;;5095316;28;20179;-74
2022/11/27 01:47:00;;;;;;;5.93;3.37;;;-9.00;99.90;;;;;;5090199;28;20235;-73
2022/11/27 01:49:37;;;;;;;4.83;2.73;;;-8.70;99.90;;;;;;5087308;28;20180;-76
2022/11/27 01:52:09;;;;;;;9.57;3.73;;;-9.30;99.90;;;;;;5088994;28;20170;-76
2022/11/27 01:55:05;;;;;;;6.37;3.43;;;-9.30;99.90;;;;;;5098523;28;20199;-75
2022/11/27 01:57:40;;;;;;;14.70;4.70;;;-9.10;99.90;;;;;;5094624;28;20192;-74
2022/11/27 02:00:08;;;;;;;6.33;2.83;;;-8.40;99.90;;;;;;5092949;28;20495;-74
2022/11/27 02:02:34;;;;;;;17.53;5.40;;;-8.90;99.90;;;;;;5088783;28;20274;-74
2022/11/27 02:05:00;;;;;;;7.23;3.50;;;-7.60;99.90;;;;;;5093710;28;20265;-74
2022/11/27 02:07:26;;;;;;;6.77;3.83;;;-9.00;99.90;;;;;;5087365;28;20195;-75
2022/11/27 02:09:52;;;;;;;5.87;3.67;;;-9.20;99.90;;;;;;5084888;28;20178;-75
2022/11/27 02:12:24;;;;;;;5.00;3.23;;;-10.10;99.90;;;;;;5101695;28;20600;-85
2022/11/27 02:15:18;;;;;;;5.37;3.13;;;-9.90;99.90;;;;;;5094664;28;20186;-77
2022/11/27 02:18:06;;;;;;;8.47;2.90;;;-8.50;99.90;;;;;;5092418;28;20171;-78
2022/11/27 02:20:35;;;;;;;2.90;2.37;;;-10.60;99.90;;;;;;5094802;28;20184;-79
2022/11/27 02:23:25;;;;;;;6.33;2.37;;;-10.70;99.90;;;;;;5091201;28;20186;-77
2022/11/27 02:26:06;;;;;;;4.80;2.63;;;-9.80;99.90;;;;;;5091712;28;20594;-78
2022/11/27 02:28:34;;;;;;;4.50;2.77;;;-9.40;99.90;;;;;;5091848;28;20202;-78
2022/11/27 02:31:17;;;;;;;2.80;2.03;;;-8.90;99.90;;;;;;5094545;28;20182;-79
2022/11/27 02:33:49;;;;;;;5.53;2.67;;;-7.70;99.90;;;;;;5094354;28;20283;-80
2022/11/27 02:36:23;;;;;;;3.27;2.60;;;-6.10;99.90;;;;;;5098277;28;20178;-79
2022/11/27 02:39:04;;;;;;;7.53;2.37;;;-7.70;99.90;;;;;;5098059;28;20582;-80
2022/11/27 02:41:38;;;;;;;10.70;3.47;;;-6.50;99.90;;;;;;5093382;28;20178;-79
2022/11/27 02:44:06;;;;;;;7.53;3.03;;;-7.80;99.90;;;;;;5097919;28;20277;-79
2022/11/27 02:46:32;;;;;;;3.93;2.37;;;-7.60;99.90;;;;;;5097817;28;20174;-77
2022/11/27 02:49:05;;;;;;;5.23;2.67;;;-8.70;99.90;;;;;;5090221;28;20195;-78
2022/11/27 02:51:38;;;;;;;11.40;4.23;;;-8.90;99.90;;;;;;5084585;28;20175;-79
2022/11/27 02:54:09;;;;;;;8.87;3.50;;;-9.00;99.90;;;;;;5086378;28;20210;-80
2022/11/27 02:56:37;;;;;;;4.30;3.07;;;-10.20;99.90;;;;;;5089842;28;20502;-80
2022/11/27 02:59:08;;;;;;;6.40;3.00;;;-8.60;99.90;;;;;;5083267;28;20214;-79
2022/11/27 03:01:38;;;;;;;6.63;3.27;;;-7.00;99.90;;;;;;5097390;28;20537;-79
2022/11/27 03:04:08;;;;;;;4.73;2.73;;;-8.10;99.90;;;;;;5094888;28;20508;-81
2022/11/27 03:06:42;;;;;;;5.33;2.57;;;-9.60;99.90;;;;;;5090496;28;20182;-81
2022/11/27 03:09:23;;;;;;;11.40;3.37;;;-11.20;99.90;;;;;;5090242;28;20292;-80
2022/11/27 03:11:49;;;;;;;6.57;3.13;;;-11.60;99.90;;;;;;5090324;28;20518;-80
2022/11/27 03:14:15;;;;;;;8.30;3.53;;;-10.20;99.90;;;;;;5089998;28;20183;-79
2022/11/27 03:17:15;;;;;;;7.03;3.63;;;-9.60;99.90;;;;;;5096246;28;20228;-82
2022/11/27 03:20:20;;;;;;;4.47;2.57;;;-9.50;99.90;;;;;;5091481;28;20190;-78
2022/11/27 03:22:46;;;;;;;6.10;2.23;;;-7.60;99.90;;;;;;5093934;28;20174;-79
2022/11/27 03:25:12;;;;;;;6.40;3.37;;;-5.70;99.90;;;;;;5080494;28;20194;-82
2022/11/27 03:27:47;;;;;;;8.77;3.53;;;-6.80;99.90;;;;;;5095745;28;20247;-79
2022/11/27 03:30:13;;;;;;;4.93;2.80;;;-7.40;99.90;;;;;;5091820;28;20209;-80
2022/11/27 03:32:39;;;;;;;7.30;3.17;;;-7.30;99.90;;;;;;5096837;28;20190;-81
2022/11/27 03:35:08;;;;;;;4.50;2.93;;;-7.10;99.90;;;;;;5096681;28;20594;-79
2022/11/27 03:37:35;;;;;;;4.17;3.33;;;-7.70;99.90;;;;;;5091876;28;20578;-79
2022/11/27 03:40:02;;;;;;;5.37;3.27;;;-7.90;99.90;;;;;;5089157;28;20622;-80
2022/11/27 03:42:37;;;;;;;5.67;2.70;;;-7.10;99.90;;;;;;5092330;28;20189;-83
2022/11/27 03:45:20;;;;;;;5.43;2.60;;;-6.60;99.90;;;;;;5096707;28;20208;-79
2022/11/27 03:48:23;;;;;;;5.20;3.37;;;-7.00;99.90;;;;;;5096934;28;20202;-83
2022/11/27 03:50:58;;;;;;;5.00;2.97;;;-7.00;99.90;;;;;;5077099;28;20316;-80
2022/11/27 03:53:38;;;;;;;8.13;3.60;;;-6.90;99.90;;;;;;5094713;28;20613;-78
2022/11/27 03:56:25;;;;;;;4.83;4.17;;;-7.40;99.90;;;;;;5079147;28;20457;-81
2022/11/27 03:58:58;;;;;;;5.10;3.13;;;-7.30;99.90;;;;;;5092080;28;20187;-83
2022/11/27 04:01:26;;;;;;;7.97;4.20;;;-7.50;99.90;;;;;;5092619;28;20217;-79
2022/11/27 04:03:52;;;;;;;6.93;3.73;;;-8.00;99.90;;;;;;5097225;28;20182;-82
2022/11/27 04:06:18;;;;;;;6.60;3.63;;;-7.40;99.90;;;;;;5095367;28;20209;-85
2022/11/27 04:08:45;;;;;;;10.37;4.23;;;-6.80;99.90;;;;;;5093919;28;20216;-80
2022/11/27 04:11:13;;;;;;;8.40;3.80;;;-7.30;99.90;;;;;;5095899;28;20222;-85
2022/11/27 04:13:39;;;;;;;7.07;3.60;;;-7.60;99.90;;;;;;5094944;28;20187;-83
2022/11/27 04:16:05;;;;;;;4.77;4.37;;;-7.10;99.90;;;;;;5091343;28;20190;-80
2022/11/27 04:18:31;;;;;;;9.80;4.13;;;-7.80;99.90;;;;;;5092110;28;21566;-85
2022/11/27 04:20:57;;;;;;;10.17;4.33;;;-6.50;99.90;;;;;;5088885;28;20217;-81
2022/11/27 04:23:24;;;;;;;11.73;4.27;;;-7.20;99.90;;;;;;5095073;28;20296;-81
2022/11/27 04:25:50;;;;;;;9.90;4.37;;;-8.00;99.90;;;;;;5095896;28;20183;-80
2022/11/27 04:28:16;;;;;;;11.00;3.97;;;-7.30;99.90;;;;;;5100353;28;20256;-82
2022/11/27 04:30:43;;;;;;;7.07;3.30;;;-7.90;99.90;;;;;;5095350;28;20174;-78
2022/11/27 04:33:09;;;;;;;8.10;3.13;;;-8.10;99.90;;;;;;5095941;28;20499;-83
2022/11/27 04:35:34;;;;;;;6.03;3.67;;;-8.40;99.90;;;;;;5096493;28;20180;-80
2022/11/27 04:38:00;;;;;;;12.23;5.07;;;-7.80;99.90;;;;;;5097119;28;20653;-82
2022/11/27 04:40:26;;;;;;;7.30;4.10;;;-7.50;99.90;;;;;;5090933;28;20590;-84
2022/11/27 04:42:51;;;;;;;7.10;3.83;;;-6.70;99.90;;;;;;5088985;28;20197;-82
2022/11/27 04:45:17;;;;;;;9.40;4.23;;;-5.20;99.90;;;;;;5084348;28;20202;-83
2022/11/27 04:47:43;;;;;;;6.10;4.17;;;-7.40;99.90;;;;;;5090046;28;20211;-84
2022/11/27 04:50:09;;;;;;;7.83;4.43;;;-6.70;99.90;;;;;;5100122;28;20528;-86
2022/11/27 04:52:35;;;;;;;5.00;3.43;;;-7.30;99.90;;;;;;5099321;28;20201;-79
2022/11/27 04:55:01;;;;;;;9.10;5.03;;;-7.00;99.90;;;;;;5087193;28;20714;-74
2022/11/27 04:57:27;;;;;;;8.13;4.17;;;-7.20;99.90;;;;;;5095001;28;20186;-85
2022/11/27 04:59:52;;;;;;;8.67;4.27;;;-7.90;99.90;;;;;;5094852;28;20709;-76
2022/11/27 05:02:18;;;;;;;11.43;4.63;;;-8.20;99.90;;;;;;5088085;28;20301;-74
2022/11/27 05:04:44;;;;;;;10.03;5.67;;;-8.50;99.90;;;;;;5086139;28;20190;-72
2022/11/27 05:07:10;;;;;;;5.57;4.30;;;-8.70;99.90;;;;;;5095466;28;20277;-72
2022/11/27 05:09:35;;;;;;;13.60;5.07;;;-9.20;99.90;;;;;;5095481;28;20205;-72
2022/11/27 05:12:01;;;;;;;10.47;5.63;;;-8.80;99.90;;;;;;5088840;28;20194;-73
2022/11/27 05:14:28;;;;;;;8.07;4.73;;;-7.90;99.90;;;;;;5090328;28;20184;-73
2022/11/27 05:16:56;;;;;;;9.50;5.53;;;-8.00;99.90;;;;;;5081705;28;20249;-74
2022/11/27 05:19:24;;;;;;;11.67;5.20;;;-8.90;99.90;;;;;;5090088;28;20182;-73
2022/11/27 05:21:51;;;;;;;11.10;4.40;;;-8.80;99.90;;;;;;5095342;28;20186;-74
2022/11/27 05:24:18;;;;;;;12.47;5.90;;;-8.40;99.90;;;;;;5097382;28;20549;-72
2022/11/27 05:26:44;;;;;;;6.73;5.67;;;-8.70;99.90;;;;;;5097460;28;20186;-76
2022/11/27 05:29:11;;;;;;;7.77;5.17;;;-9.30;99.90;;;;;;5098898;28;20213;-71
2022/11/27 05:31:37;;;;;;;10.27;4.67;;;-8.30;99.90;;;;;;5091882;28;20170;-73
2022/11/27 05:34:04;;;;;;;14.63;4.73;;;-9.10;99.90;;;;;;5096263;28;20190;-75
2022/11/27 05:36:30;;;;;;;7.20;4.93;;;-8.10;99.90;;;;;;5099746;28;20178;-72
2022/11/27 05:38:56;;;;;;;10.07;6.13;;;-8.00;99.90;;;;;;5091893;28;20531;-73
2022/11/27 05:41:22;;;;;;;9.30;5.17;;;-8.50;99.90;;;;;;5090495;28;20197;-71
2022/11/27 05:43:48;;;;;;;7.77;4.20;;;-7.40;99.90;;;;;;5099707;28;20575;-72
2022/11/27 05:46:17;;;;;;;8.53;4.50;;;-9.40;99.90;;;;;;5087932;28;20178;-82
2022/11/27 05:48:43;;;;;;;9.00;5.63;;;-8.50;99.90;;;;;;5086438;28;20206;-76
2022/11/27 05:51:08;;;;;;;9.47;5.20;;;-8.70;99.90;;;;;;5104900;28;20175;-76
2022/11/27 05:53:34;;;;;;;9.90;4.10;;;-8.70;99.90;;;;;;5098535;28;20233;-77
2022/11/27 05:56:09;;;;;;;7.17;4.40;;;-8.40;99.90;;;;;;5099337;28;20186;-81
2022/11/27 05:58:36;;;;;;;6.83;3.97;;;-8.10;99.90;;;;;;5094375;28;20226;-84
2022/11/27 06:01:02;;;;;;;9.10;4.83;;;-8.10;99.90;;;;;;5104332;28;20252;-82
2022/11/27 06:03:27;;;;;;;8.40;4.30;;;-8.10;99.90;;;;;;5105352;28;20601;-85
2022/11/27 06:05:53;;;;;;;11.87;5.47;;;-8.90;99.90;;;;;;5099204;28;20206;-81
2022/11/27 06:08:19;;;;;;;13.83;5.40;;;-8.40;99.90;;;;;;5094489;28;20213;-87
2022/11/27 06:10:46;;;;;;;8.90;4.97;;;-8.40;99.90;;;;;;5094621;28;20196;-82
2022/11/27 06:13:13;;;;;;;7.80;4.40;;;-8.00;99.90;;;;;;5099077;28;20186;-89
2022/11/27 06:15:40;;;;;;;11.63;5.00;;;-9.00;99.90;;;;;;5103605;28;20269;-86
2022/11/27 06:18:06;;;;;;;6.77;5.07;;;-7.20;99.90;;;;;;5098295;28;20255;-85
2022/11/27 06:20:32;;;;;;;15.33;4.33;;;-6.90;99.90;;;;;;5097918;28;20219;-85
2022/11/27 06:22:58;;;;;;;10.73;5.80;;;-6.80;99.90;;;;;;5105640;28;20194;-89
2022/11/27 06:25:25;;;;;;;7.17;4.90;;;-7.20;99.90;;;;;;5102858;28;20193;-90
2022/11/27 06:27:51;;;;;;;9.03;4.17;;;-7.70;99.90;;;;;;5099233;28;20606;-89
2022/11/27 06:30:17;;;;;;;14.73;6.13;;;-6.10;99.90;;;;;;5090426;28;20193;-89
2022/11/27 06:32:43;;;;;;;6.07;4.23;;;-6.60;99.90;;;;;;5089839;28;20228;-88
2022/11/27 06:35:09;;;;;;;5.30;4.30;;;-6.30;99.90;;;;;;5092398;28;20182;-90
2022/11/27 06:37:35;;;;;;;12.87;4.93;;;-7.10;99.90;;;;;;5103722;28;20581;-88
2022/11/27 06:40:01;;;;;;;8.10;4.97;;;-6.90;99.90;;;;;;5098515;28;20216;-90
2022/11/27 06:42:30;;;;;;;8.50;4.27;;;-6.00;99.90;;;;;;5098693;28;20217;-90
2022/11/27 06:44:56;;;;;;;10.87;5.30;;;-6.50;99.90;;;;;;5099601;28;20220;-89
2022/11/27 06:47:22;;;;;;;7.57;4.87;;;-6.40;99.90;;;;;;5092767;28;20289;-88
2022/11/27 06:49:48;;;;;;;11.67;4.20;;;-9.10;99.90;;;;;;5093331;28;20182;-88
2022/11/27 06:52:14;;;;;;;7.17;5.30;;;-8.10;99.90;;;;;;5098481;28;20551;-85
2022/11/27 06:54:40;;;;;;;6.43;4.63;;;-8.30;99.90;;;;;;5105154;28;20246;-86
2022/11/27 06:57:05;;;;;;;13.30;4.53;;;-8.10;99.90;;;;;;5103723;28;20194;-84
2022/11/27 06:59:31;;;;;;;7.97;4.97;;;-8.10;99.90;;;;;;5097703;28;20597;-90
2022/11/27 07:01:57;;;;;;;6.57;4.07;;;-8.20;99.90;;;;;;5097058;28;20179;-90
2022/11/27 07:04:23;;;;;;;10.40;5.10;;;-7.80;99.90;;;;;;5086786;28;20198;-90
2022/11/27 07:06:48;;;;;;;6.13;4.30;;;-7.90;99.90;;;;;;5098604;28;20171;-89
2022/11/27 07:09:14;;;;;;;10.70;4.63;;;-7.90;99.90;;;;;;5095367;28;20217;-90
2022/11/27 07:11:40;;;;;;;7.33;4.07;;;-7.10;99.90;;;;;;5098122;28;20209;-84
2022/11/27 07:14:06;;;;;;;8.00;4.87;;;-7.70;99.90;;;;;;5081675;28;20191;-88
2022/11/27 07:16:34;;;;;;;8.50;5.33;;;-8.00;99.90;;;;;;5094660;28;20216;-86
2022/11/27 07:19:03;;;;;;;11.57;5.37;;;-8.10;99.90;;;;;;5096090;28;20240;-84
2022/11/27 07:21:30;;;;;;;8.73;4.87;;;-11.00;99.90;;;;;;5093503;28;20236;-91
2022/11/27 07:23:56;;;;;;;5.73;4.13;;;-10.50;99.90;;;;;;5103367;28;20274;-83
2022/11/27 07:26:26;;;;;;;7.27;4.93;;;-10.90;99.90;;;;;;5103380;28;20179;-88
2022/11/27 07:28:52;;;;;;;10.23;5.23;;;-10.80;99.90;;;;;;5093437;28;20210;-86
2022/11/27 07:31:25;;;;;;;8.10;4.53;;;-10.90;99.90;;;;;;5092571;28;20219;-83
2022/11/27 07:33:51;;;;;;;6.50;4.13;;;-10.90;99.90;;;;;;5085242;28;20472;-89
2022/11/27 07:36:25;;;;;;;5.60;4.27;;;-10.60;99.90;;;;;;5094448;28;20220;-89
2022/11/27 07:38:53;;;;;;;8.60;4.67;;;-10.30;99.90;;;;;;5099293;28;20181;-71
2022/11/27 07:41:19;;;;;;;6.63;4.80;;;-9.90;99.90;;;;;;5097649;28;20183;-84
2022/11/27 07:43:45;;;;;;;16.13;5.17;;;-10.50;99.90;;;;;;5097681;28;20204;-85
2022/11/27 07:46:17;;;;;;;10.10;5.37;;;-10.40;99.90;;;;;;5091775;28;20183;-77
2022/11/27 07:48:43;;;;;;;7.03;4.53;;;-10.30;99.90;;;;;;5098342;28;20199;-74
2022/11/27 07:51:11;;;;;;;4.50;4.07;;;-10.00;99.90;;;;;;5092632;28;20167;-72
2022/11/27 07:53:38;;;;;;;10.10;5.40;;;-8.80;99.90;;;;;;5093647;28;20206;-85
2022/11/27 07:56:05;;;;;;;10.07;5.20;;;-11.10;99.90;;;;;;5091108;28;20583;-78
2022/11/27 07:58:31;;;;;;;10.10;5.93;;;-10.90;99.90;;;;;;5091578;28;20182;-85
2022/11/27 08:00:58;;;;;;;11.17;5.67;;;-10.80;99.90;;;;;;5094013;28;20192;-78
2022/11/27 08:03:24;;;;;;;8.40;5.17;;;-9.60;99.90;;;;;;5097032;28;20298;-81
2022/11/27 08:05:50;;;;;;;7.93;5.17;;;-9.50;99.90;;;;;;5091469;28;20182;-77
2022/11/27 08:08:16;;;;;;;8.57;5.07;;;-8.80;99.90;;;;;;5095466;28;20605;-71
2022/11/27 08:10:41;;;;;;;9.83;5.83;;;-8.80;99.90;;;;;;5075399;28;20195;-76
2022/11/27 08:13:07;;;;;;;5.37;4.57;;;-9.60;99.90;;;;;;5076033;28;20185;-75
2022/11/27 08:15:33;;;;;;;7.07;5.10;;;-9.90;99.90;;;;;;5092461;28;20175;-76
2022/11/27 08:17:59;;;;;;;13.50;6.03;;;-10.70;99.90;;;;;;5094993;28;20187;-71
2022/11/27 08:20:25;;;;;;;8.97;4.83;;;-10.00;99.90;;;;;;5094962;28;20216;-74
2022/11/27 08:22:51;;;;;;;10.37;5.17;;;-9.20;99.90;;;;;;5095157;28;20182;-72
2022/11/27 08:25:17;;;;;;;9.87;5.80;;;-8.70;99.90;;;;;;5095780;28;20191;-76
2022/11/27 08:27:43;;;;;;;5.57;4.47;;;-8.60;99.90;;;;;;5082203;28;20214;-80
2022/11/27 08:30:09;;;;;;;14.97;5.80;;;-9.50;99.90;;;;;;5089996;28;20253;-76
2022/11/27 08:32:39;;;;;;;13.67;5.97;;;-10.20;99.90;;;;;;5096362;28;20182;-81
2022/11/27 08:35:05;;;;;;;7.20;5.73;;;-10.30;99.90;;;;;;5095479;28;21090;-75
2022/11/27 08:37:32;;;;;;;8.23;5.17;;;-9.60;99.90;;;;;;5089230;28;20273;-72
2022/11/27 08:39:58;;;;;;;7.47;4.97;;;-10.10;99.90;;;;;;5095891;28;20199;-77
2022/11/27 08:42:24;;;;;;;5.80;4.63;;;-9.40;99.90;;;;;;5098041;28;20185;-77
2022/11/27 08:44:49;;;;;;;10.60;5.10;;;-9.80;99.90;;;;;;5088128;28;20186;-76
2022/11/27 08:47:15;;;;;;;6.30;4.60;;;-9.80;99.90;;;;;;5095141;28;20334;-77
2022/11/27 08:49:42;;;;;;;10.57;6.53;;;-6.40;99.90;;;;;;5089217;28;20236;-79
2022/11/27 08:52:09;;;;;;;10.57;4.07;;;-9.70;99.90;;;;;;5101849;28;20183;-78
2022/11/27 08:54:35;;;;;;;11.07;5.10;;;-10.70;99.90;;;;;;5084420;28;20214;-70
2022/11/27 08:57:03;;;;;;;12.30;6.13;;;-10.20;99.90;;;;;;5095678;28;20593;-71
2022/11/27 08:59:29;;;;;;;7.07;5.13;;;-8.80;99.90;;;;;;5089627;28;20233;-73
2022/11/27 09:01:55;;;;;;;11.87;5.47;;;-9.20;99.90;;;;;;5088648;28;20206;-75
2022/11/27 09:04:21;;;;;;;12.90;6.03;;;-10.40;99.90;;;;;;5093737;28;20212;-74
2022/11/27 09:06:47;;;;;;;10.53;5.93;;;-10.10;99.90;;;;;;5093564;28;20197;-73
2022/11/27 09:09:14;;;;;;;7.10;4.70;;;-10.70;99.90;;;;;;5095052;28;20267;-72
2022/11/27 09:11:40;;;;;;;9.37;5.40;;;-11.00;99.90;;;;;;5083659;28;20210;-71
2022/11/27 09:14:07;;;;;;;8.57;5.13;;;-10.10;99.90;;;;;;5085017;28;20202;-83
2022/11/27 09:16:34;;;;;;;9.13;5.90;;;-9.50;99.90;;;;;;5092496;28;20171;-73
2022/11/27 09:19:00;;;;;;;7.03;5.00;;;-9.00;99.90;;;;;;5083319;28;20192;-75
2022/11/27 09:21:31;;;;;;;8.03;5.93;;;-8.50;99.90;;;;;;5094237;28;20182;-73
2022/11/27 09:23:59;;;;;;;21.80;13.00;;;-7.90;99.90;;;;;;5088430;28;20176;-73
2022/11/27 09:26:26;;;;;;;8.07;5.43;;;-8.00;99.90;;;;;;5086562;28;20182;-73
2022/11/27 09:28:53;;;;;;;79.70;60.20;;;-7.70;99.90;;;;;;5086239;28;20217;-75
2022/11/27 09:31:21;;;;;;;17.23;13.47;;;-8.00;99.90;;;;;;5087325;28;20199;-76
2022/11/27 09:33:47;;;;;;;14.10;7.57;;;-8.10;99.90;;;;;;5089870;28;20193;-73
2022/11/27 09:36:16;;;;;;;11.87;10.40;;;-7.40;99.90;;;;;;5093665;28;20488;-73
2022/11/27 09:38:42;;;;;;;10.03;6.77;;;-7.50;99.90;;;;;;5091207;28;20195;-73
2022/11/27 09:41:26;;;;;;;12.23;7.07;;;-7.50;99.90;;;;;;5089310;28;20657;-73
2022/11/27 09:44:00;;;;;;;7.87;5.57;;;-8.50;99.90;;;;;;5086120;28;20201;-72
2022/11/27 09:46:35;;;;;;;11.57;6.83;;;-8.40;99.90;;;;;;5086754;28;20187;-72
2022/11/27 09:49:07;;;;;;;18.77;8.03;;;-8.40;99.90;;;;;;5093182;28;20628;-73
2022/11/27 09:51:39;;;;;;;15.53;7.83;;;-8.60;99.90;;;;;;5093796;28;20174;-73
2022/11/27 09:54:24;;;;;;;12.17;6.53;;;-7.20;99.90;;;;;;5089173;28;20207;-79
2022/11/27 09:56:53;;;;;;;9.80;6.43;;;-8.10;99.90;;;;;;5095137;28;20210;-72
2022/11/27 09:59:24;;;;;;;11.10;6.27;;;-8.00;99.90;;;;;;5082121;28;20190;-71
2022/11/27 10:01:50;;;;;;;12.70;8.83;;;-7.60;99.90;;;;;;5087462;28;20198;-72
2022/11/27 10:04:19;;;;;;;12.17;7.20;;;-7.00;99.90;;;;;;5090537;28;20199;-72
2022/11/27 10:07:06;;;;;;;12.13;8.33;;;-7.70;99.90;;;;;;5086726;28;20179;-72
2022/11/27 10:09:44;;;;;;;13.20;8.23;;;-7.30;99.90;;;;;;5096339;28;20214;-76
2022/11/27 10:12:34;;;;;;;8.93;6.63;;;-7.30;99.90;;;;;;5081613;28;20183;-76
2022/11/27 10:15:20;;;;;;;8.17;6.40;;;-7.30;99.90;;;;;;5088144;28;20183;-76
2022/11/27 10:18:16;;;;;;;9.80;7.80;;;-6.30;99.90;;;;;;5084616;28;20183;-76
2022/11/27 10:20:52;;;;;;;17.70;11.30;;;-7.10;99.90;;;;;;5084868;28;20194;-80
2022/11/27 10:23:31;;;;;;;14.10;13.00;;;-8.00;99.90;;;;;;5097526;28;20181;-74
2022/11/27 10:26:03;;;;;;;10.33;8.50;;;-7.90;99.90;;;;;;5084860;28;20186;-78
2022/11/27 10:29:08;;;;;;;8.70;5.67;;;-8.40;99.90;;;;;;5094850;28;20222;-82
2022/11/27 10:31:39;;;;;;;10.93;6.87;;;-8.90;99.90;;;;;;5092733;28;20243;-71
2022/11/27 10:34:33;;;;;;;10.07;8.10;;;-8.50;99.90;;;;;;5096648;28;20200;-80
2022/11/27 10:37:01;;;;;;;26.60;24.07;;;-7.60;99.90;;;;;;5086144;28;20493;-79
2022/11/27 10:39:35;;;;;;;12.30;11.13;;;-7.50;99.90;;;;;;5097379;28;20179;-80
2022/11/27 10:42:14;;;;;;;7.13;6.00;;;-7.50;99.90;;;;;;5096174;28;20264;-77
2022/11/27 10:44:43;;;;;;;12.67;8.13;;;-8.10;99.90;;;;;;5097557;28;20185;-75
2022/11/27 10:47:11;;;;;;;9.33;5.90;;;-7.80;99.90;;;;;;5097691;28;20240;-75
2022/11/27 10:49:41;;;;;;;6.80;5.30;;;-7.80;99.90;;;;;;5098528;28;20234;-78
2022/11/27 10:52:13;;;;;;;10.33;9.47;;;-9.50;99.90;;;;;;5092908;28;20258;-75
2022/11/27 10:54:40;;;;;;;12.87;7.20;;;-9.40;99.90;;;;;;5091473;28;20197;-77
2022/11/27 10:57:27;;;;;;;8.57;7.83;;;-10.50;99.90;;;;;;5086772;28;20180;-80
2022/11/27 11:00:08;;;;;;;7.83;5.90;;;-9.50;99.90;;;;;;5087569;28;20179;-80
2022/11/27 11:02:37;;;;;;;4.80;4.40;;;-11.10;99.90;;;;;;5091206;28;20190;-80
2022/11/27 11:05:30;;;;;;;7.43;6.53;;;-11.10;99.90;;;;;;5095146;28;20523;-81
2022/11/27 11:08:00;;;;;;;10.27;5.87;;;-10.30;99.90;;;;;;5087680;28;20349;-79
2022/11/27 11:10:31;;;;;;;11.30;5.43;;;-12.60;99.90;;;;;;5087879;28;20283;-77
2022/11/27 11:13:26;;;;;;;8.03;6.87;;;-10.50;99.90;;;;;;5088010;28;20225;-76
2022/11/27 11:15:57;;;;;;;9.27;5.70;;;-10.90;99.90;;;;;;5084842;28;20278;-80
2022/11/27 11:18:40;;;;;;;9.40;5.60;;;-11.60;99.90;;;;;;5095293;28;20269;-80
2022/11/27 11:21:06;;;;;;;7.33;5.70;;;-10.60;99.90;;;;;;5096673;28;20193;-79
2022/11/27 11:23:39;;;;;;;8.23;5.43;;;-9.80;99.90;;;;;;5091474;28;20251;-79
2022/11/27 11:26:23;;;;;;;9.23;8.10;;;-10.40;99.90;;;;;;5095747;28;20189;-81
2022/11/27 11:29:01;;;;;;;14.87;12.90;;;-12.00;99.90;;;;;;5079408;28;20603;-78
2022/11/27 11:31:39;;;;;;;8.70;6.83;;;-11.60;99.90;;;;;;5089361;28;20704;-79
2022/11/27 11:34:18;;;;;;;8.17;6.20;;;-13.30;99.90;;;;;;5095816;28;20270;-78
2022/11/27 11:37:07;;;;;;;9.90;6.40;;;-11.00;99.90;;;;;;5095903;28;20604;-78
2022/11/27 11:39:47;;;;;;;8.97;8.13;;;-12.30;99.90;;;;;;5086905;28;20218;-78
2022/11/27 11:42:22;;;;;;;8.90;5.97;;;-12.60;99.90;;;;;;5094159;28;20258;-77
2022/11/27 11:45:01;;;;;;;9.67;6.50;;;-13.00;99.90;;;;;;5087672;28;20247;-73
2022/11/27 11:47:28;;;;;;;33.00;24.67;;;-13.10;99.90;;;;;;5095825;28;20184;-80
2022/11/27 11:49:55;;;;;;;10.73;7.17;;;-11.00;99.90;;;;;;5088598;28;20175;-78
2022/11/27 11:52:42;;;;;;;8.93;6.43;;;-9.20;99.90;;;;;;5090955;28;20176;-82
2022/11/27 11:55:26;;;;;;;8.70;6.50;;;-11.90;99.90;;;;;;5090679;28;20179;-75
2022/11/27 11:58:10;;;;;;;8.23;6.60;;;-10.70;99.90;;;;;;5088101;28;20176;-78
2022/11/27 12:00:55;;;;;;;47.80;33.13;;;-9.90;99.90;;;;;;5088869;28;20233;-82
2022/11/27 12:04:08;;;;;;;9.63;4.50;;;-10.60;99.90;;;;;;5089527;28;20192;-78
2022/11/27 12:06:50;;;;;;;10.50;8.03;;;-8.30;99.90;;;;;;5024963;28;20192;-76
2022/11/27 12:09:21;;;;;;;12.07;8.23;;;-8.00;99.90;;;;;;5090755;28;20230;-80
2022/11/27 12:11:57;;;;;;;10.73;5.37;;;-11.20;99.90;;;;;;5094492;28;20237;-78
2022/11/27 12:15:00;;;;;;;10.73;7.37;;;-11.50;99.90;;;;;;5092176;28;20183;-78
2022/11/27 12:17:43;;;;;;;14.37;10.07;;;-10.60;99.90;;;;;;5090488;28;20191;-75
2022/11/27 12:20:56;;;;;;;9.97;7.03;;;-10.30;99.90;;;;;;5093054;28;20190;-75
2022/11/27 12:23:27;;;;;;;9.80;8.17;;;-10.80;99.90;;;;;;5033385;28;20471;-78
2022/11/27 12:26:31;;;;;;;13.43;8.10;;;-10.00;99.90;;;;;;5089030;28;20251;-75
2022/11/27 12:29:25;;;;;;;10.70;6.67;;;-9.20;99.90;;;;;;5085099;28;20222;-77
2022/11/27 12:32:13;;;;;;;11.73;6.77;;;-8.60;99.90;;;;;;5088718;28;20181;-78
2022/11/27 12:34:53;;;;;;;9.03;7.00;;;-7.30;99.90;;;;;;5082046;28;20478;-77
2022/11/27 12:37:52;;;;;;;10.60;6.83;;;-11.50;99.90;;;;;;5088542;28;20259;-77
2022/11/27 12:40:42;;;;;;;11.00;7.43;;;-8.90;99.90;;;;;;5090441;28;20227;-76
2022/11/27 12:43:36;;;;;;;11.50;10.30;;;-8.70;99.90;;;;;;5085677;28;20265;-71
2022/11/27 12:46:15;;;;;;;44.50;33.33;;;-9.50;99.90;;;;;;5093782;28;20281;-76
2022/11/27 12:49:04;;;;;;;43.07;38.57;;;-8.70;99.90;;;;;;5087985;28;20240;-72
2022/11/27 12:51:40;;;;;;;23.77;19.53;;;-8.30;99.90;;;;;;5095033;28;20182;-74
2022/11/27 12:54:26;;;;;;;13.73;12.30;;;-8.40;99.90;;;;;;5094990;28;20254;-75
2022/11/27 12:56:57;;;;;;;10.63;6.30;;;-8.60;99.90;;;;;;5089548;28;20276;-72
2022/11/27 12:59:35;;;;;;;21.27;16.70;;;-8.20;99.90;;;;;;5088752;28;20174;-75
2022/11/27 13:02:27;;;;;;;31.73;22.50;;;-8.40;99.90;;;;;;5082083;28;20248;-79